Aérodrome :
LOGIN :

S'inscrire | Disclaimer

   EN    FR    IT 

 










Légende :    VFR   VFR Marginal   IFR   IFR Intensif   IFR Très Intensif
Visi : 
Plafond : 
>= 8 km
>= 3000ft
5 à 8 km
1000 à 3000 ft
1500m à 5 km
500 à 1000 ft
800 à 1500m
200 à 500 ft
< 800m
< 200 ft
Symboles :   Orages  Brouillard  Fortes neiges  Fortes précipitations  Vent > 20 kt
SIGMETs :   Divers  Orages  Givrage  Turbulence  Onde Orograph.  Cendres Volcan.






- Altitude de l'aérodrome : 17 ft
- Code IATA : GRS


LIRS - Grosseto

DERNIER METAR :
  • 301355Z 23010KT 9999 FEW025TCU SCT030 22/12 Q1014 RMK BKN VIS MIN 9999 WIND THR03 24013KT WIND THR21 24010KT BLU

METARs EXPIRÉS :
  • 301255Z 23009KT 180V290 9999 SCT030 SCT050 22/11 Q1014 RMK BKN VIS MIN 9999 WIND THR03 25009KT WIND THR21 22008KT BLU
  • 301155Z 21004KT 9999 SCT030 SCT060 22/11 Q1015

TAF TAF LIRS
Valide du 30 à 15h jusqu'au 31 à 00h UTC


301400Z 3015/3024 26010KT 9999 SCT030 SCT050
BECMG 3019/3020 04008KT



MET'MAP, la Météo Aéronautique d'un coup d'oeil ! - Copyright ORBIFLY Décembre 2007 - Disclaimer

ORBIFLY MET'MAP TEAM :

Programmation & Développement : Alexandra Zaïnal
Sur une idée originale de : Baudouin d'Aumeries
Assistance à la programmation : Marc-Olivier Méhu
Soutien technique & logistique : Manuel Goepfert

Contact : metmap@orbifly.com




SOURCES & CREDITS :

   NOAA